sensor_id;sensor_type;location;lat;lon;timestamp;temperature;humidity
78184;DHT22;67442;44.570;18.610;2023-07-29T00:02:22;25.20;56.60
78184;DHT22;67442;44.570;18.610;2023-07-29T00:04:49;25.20;56.60
78184;DHT22;67442;44.570;18.610;2023-07-29T00:07:20;25.20;56.60
78184;DHT22;67442;44.570;18.610;2023-07-29T00:09:48;25.20;56.70
78184;DHT22;67442;44.570;18.610;2023-07-29T00:12:15;25.20;56.70
78184;DHT22;67442;44.570;18.610;2023-07-29T00:14:46;25.20;56.70
78184;DHT22;67442;44.570;18.610;2023-07-29T00:17:13;25.20;56.70
78184;DHT22;67442;44.570;18.610;2023-07-29T00:19:40;25.30;56.80
78184;DHT22;67442;44.570;18.610;2023-07-29T00:22:08;25.20;56.80
78184;DHT22;67442;44.570;18.610;2023-07-29T00:24:40;25.30;56.80
78184;DHT22;67442;44.570;18.610;2023-07-29T00:27:08;25.30;56.80
78184;DHT22;67442;44.570;18.610;2023-07-29T00:29:34;25.20;56.80
78184;DHT22;67442;44.570;18.610;2023-07-29T00:32:02;25.30;56.80
78184;DHT22;67442;44.570;18.610;2023-07-29T00:34:29;25.30;56.80
78184;DHT22;67442;44.570;18.610;2023-07-29T00:36:59;25.30;56.90
78184;DHT22;67442;44.570;18.610;2023-07-29T00:39:27;25.30;56.90
78184;DHT22;67442;44.570;18.610;2023-07-29T00:41:54;25.30;56.90
78184;DHT22;67442;44.570;18.610;2023-07-29T00:44:22;25.30;56.90
78184;DHT22;67442;44.570;18.610;2023-07-29T00:46:50;25.30;56.90
78184;DHT22;67442;44.570;18.610;2023-07-29T00:49:19;25.30;56.90
78184;DHT22;67442;44.570;18.610;2023-07-29T00:51:50;25.30;56.90
78184;DHT22;67442;44.570;18.610;2023-07-29T00:54:16;25.30;56.90
78184;DHT22;67442;44.570;18.610;2023-07-29T00:56:47;25.30;56.90
78184;DHT22;67442;44.570;18.610;2023-07-29T00:59:15;25.30;56.90
78184;DHT22;67442;44.570;18.610;2023-07-29T01:01:42;25.30;57.00
78184;DHT22;67442;44.570;18.610;2023-07-29T01:04:12;25.30;56.90
78184;DHT22;67442;44.570;18.610;2023-07-29T01:06:53;25.40;57.00
78184;DHT22;67442;44.570;18.610;2023-07-29T01:09:25;25.40;57.10
78184;DHT22;67442;44.570;18.610;2023-07-29T01:14:36;25.40;57.10
78184;DHT22;67442;44.570;18.610;2023-07-29T01:17:09;25.40;57.10
78184;DHT22;67442;44.570;18.610;2023-07-29T01:20:00;25.40;57.10
78184;DHT22;67442;44.570;18.610;2023-07-29T01:22:34;25.40;57.10
78184;DHT22;67442;44.570;18.610;2023-07-29T01:25:01;25.40;57.10
78184;DHT22;67442;44.570;18.610;2023-07-29T01:27:28;25.40;57.10
78184;DHT22;67442;44.570;18.610;2023-07-29T01:29:56;25.40;57.10
78184;DHT22;67442;44.570;18.610;2023-07-29T01:32:32;25.40;57.10
78184;DHT22;67442;44.570;18.610;2023-07-29T01:35:29;25.40;57.10
78184;DHT22;67442;44.570;18.610;2023-07-29T01:38:07;25.40;57.20
78184;DHT22;67442;44.570;18.610;2023-07-29T01:40:35;25.40;57.10
78184;DHT22;67442;44.570;18.610;2023-07-29T01:43:03;25.40;57.20
78184;DHT22;67442;44.570;18.610;2023-07-29T01:45:30;25.40;57.20
78184;DHT22;67442;44.570;18.610;2023-07-29T01:48:01;25.40;57.20
78184;DHT22;67442;44.570;18.610;2023-07-29T01:50:28;25.40;57.20
78184;DHT22;67442;44.570;18.610;2023-07-29T01:52:56;25.40;57.30
78184;DHT22;67442;44.570;18.610;2023-07-29T01:55:23;25.40;57.30
78184;DHT22;67442;44.570;18.610;2023-07-29T01:57:50;25.40;57.30
78184;DHT22;67442;44.570;18.610;2023-07-29T02:00:22;25.40;57.30
78184;DHT22;67442;44.570;18.610;2023-07-29T02:02:49;25.40;57.30
78184;DHT22;67442;44.570;18.610;2023-07-29T02:05:16;25.40;57.30
78184;DHT22;67442;44.570;18.610;2023-07-29T02:07:47;25.40;57.30
78184;DHT22;67442;44.570;18.610;2023-07-29T02:10:15;25.40;57.30
78184;DHT22;67442;44.570;18.610;2023-07-29T02:12:42;25.40;57.40
78184;DHT22;67442;44.570;18.610;2023-07-29T02:15:10;25.40;57.40
78184;DHT22;67442;44.570;18.610;2023-07-29T02:17:37;25.40;57.40
78184;DHT22;67442;44.570;18.610;2023-07-29T02:20:04;25.40;57.40
78184;DHT22;67442;44.570;18.610;2023-07-29T02:22:32;25.40;57.40
78184;DHT22;67442;44.570;18.610;2023-07-29T02:24:59;25.40;57.40
78184;DHT22;67442;44.570;18.610;2023-07-29T02:27:27;25.40;57.40
78184;DHT22;67442;44.570;18.610;2023-07-29T02:29:54;25.40;57.40
78184;DHT22;67442;44.570;18.610;2023-07-29T02:32:21;25.40;57.40
78184;DHT22;67442;44.570;18.610;2023-07-29T02:34:49;25.40;57.40
78184;DHT22;67442;44.570;18.610;2023-07-29T02:37:16;25.40;57.40
78184;DHT22;67442;44.570;18.610;2023-07-29T02:39:44;25.40;57.40
78184;DHT22;67442;44.570;18.610;2023-07-29T02:42:11;25.40;57.40
78184;DHT22;67442;44.570;18.610;2023-07-29T02:44:39;25.50;57.50
78184;DHT22;67442;44.570;18.610;2023-07-29T02:47:07;25.50;57.50
78184;DHT22;67442;44.570;18.610;2023-07-29T02:49:33;25.40;57.40
78184;DHT22;67442;44.570;18.610;2023-07-29T02:52:01;25.50;57.50
78184;DHT22;67442;44.570;18.610;2023-07-29T02:54:28;25.40;57.40
78184;DHT22;67442;44.570;18.610;2023-07-29T02:56:55;25.40;57.40
78184;DHT22;67442;44.570;18.610;2023-07-29T02:59:22;25.50;57.60
78184;DHT22;67442;44.570;18.610;2023-07-29T03:01:50;25.50;57.60
78184;DHT22;67442;44.570;18.610;2023-07-29T03:04:17;25.50;57.50
78184;DHT22;67442;44.570;18.610;2023-07-29T03:06:44;25.40;57.50
78184;DHT22;67442;44.570;18.610;2023-07-29T03:09:14;25.50;57.60
78184;DHT22;67442;44.570;18.610;2023-07-29T03:11:41;25.50;57.60
78184;DHT22;67442;44.570;18.610;2023-07-29T03:14:08;25.50;57.60
78184;DHT22;67442;44.570;18.610;2023-07-29T03:16:35;25.40;57.50
78184;DHT22;67442;44.570;18.610;2023-07-29T03:19:02;25.40;57.50
78184;DHT22;67442;44.570;18.610;2023-07-29T03:21:30;25.40;57.80
78184;DHT22;67442;44.570;18.610;2023-07-29T03:23:57;25.50;57.60
78184;DHT22;67442;44.570;18.610;2023-07-29T03:26:29;25.40;57.50
78184;DHT22;67442;44.570;18.610;2023-07-29T03:28:56;25.50;57.60
78184;DHT22;67442;44.570;18.610;2023-07-29T03:31:27;25.50;57.60
78184;DHT22;67442;44.570;18.610;2023-07-29T03:33:54;25.50;57.60
78184;DHT22;67442;44.570;18.610;2023-07-29T03:36:21;25.50;57.70
78184;DHT22;67442;44.570;18.610;2023-07-29T03:38:51;25.50;57.70
78184;DHT22;67442;44.570;18.610;2023-07-29T03:41:19;25.50;57.70
78184;DHT22;67442;44.570;18.610;2023-07-29T03:43:46;25.50;57.70
78184;DHT22;67442;44.570;18.610;2023-07-29T03:46:13;25.50;57.70
78184;DHT22;67442;44.570;18.610;2023-07-29T03:48:44;25.50;57.70
78184;DHT22;67442;44.570;18.610;2023-07-29T03:51:11;25.50;57.70
78184;DHT22;67442;44.570;18.610;2023-07-29T03:53:38;25.50;57.70
78184;DHT22;67442;44.570;18.610;2023-07-29T03:56:06;25.50;57.70
78184;DHT22;67442;44.570;18.610;2023-07-29T03:58:37;25.50;57.70
78184;DHT22;67442;44.570;18.610;2023-07-29T04:01:05;25.50;57.70
78184;DHT22;67442;44.570;18.610;2023-07-29T04:03:33;25.50;57.70
78184;DHT22;67442;44.570;18.610;2023-07-29T04:06:04;25.50;57.70
78184;DHT22;67442;44.570;18.610;2023-07-29T04:08:31;25.50;57.70
78184;DHT22;67442;44.570;18.610;2023-07-29T04:11:03;25.50;57.70
78184;DHT22;67442;44.570;18.610;2023-07-29T04:13:30;25.50;57.70
78184;DHT22;67442;44.570;18.610;2023-07-29T04:15:57;25.50;57.70
78184;DHT22;67442;44.570;18.610;2023-07-29T04:18:25;25.50;57.70
78184;DHT22;67442;44.570;18.610;2023-07-29T04:20:53;25.50;57.70
78184;DHT22;67442;44.570;18.610;2023-07-29T04:23:20;25.50;57.80
78184;DHT22;67442;44.570;18.610;2023-07-29T04:25:51;25.50;57.70
78184;DHT22;67442;44.570;18.610;2023-07-29T04:28:19;25.50;57.80
78184;DHT22;67442;44.570;18.610;2023-07-29T04:30:46;25.50;57.80
78184;DHT22;67442;44.570;18.610;2023-07-29T04:33:13;25.50;57.80
78184;DHT22;67442;44.570;18.610;2023-07-29T04:35:40;25.50;57.80
78184;DHT22;67442;44.570;18.610;2023-07-29T04:38:08;25.50;57.80
78184;DHT22;67442;44.570;18.610;2023-07-29T04:40:35;25.50;57.90
78184;DHT22;67442;44.570;18.610;2023-07-29T04:43:03;25.50;57.80
78184;DHT22;67442;44.570;18.610;2023-07-29T04:45:30;25.50;57.80
78184;DHT22;67442;44.570;18.610;2023-07-29T04:48:01;25.50;57.80
78184;DHT22;67442;44.570;18.610;2023-07-29T04:50:27;25.50;57.90
78184;DHT22;67442;44.570;18.610;2023-07-29T04:52:54;25.50;57.90
78184;DHT22;67442;44.570;18.610;2023-07-29T04:55:21;25.50;58.50
78184;DHT22;67442;44.570;18.610;2023-07-29T04:57:49;25.50;57.90
78184;DHT22;67442;44.570;18.610;2023-07-29T05:00:17;25.50;57.90
78184;DHT22;67442;44.570;18.610;2023-07-29T05:02:43;25.50;57.90
78184;DHT22;67442;44.570;18.610;2023-07-29T05:05:11;25.50;57.90
78184;DHT22;67442;44.570;18.610;2023-07-29T05:07:38;25.50;57.90
78184;DHT22;67442;44.570;18.610;2023-07-29T05:10:08;25.50;57.90
78184;DHT22;67442;44.570;18.610;2023-07-29T05:12:36;25.60;58.10
78184;DHT22;67442;44.570;18.610;2023-07-29T05:15:05;25.50;58.00
78184;DHT22;67442;44.570;18.610;2023-07-29T05:17:35;25.60;58.10
78184;DHT22;67442;44.570;18.610;2023-07-29T05:20:10;25.50;58.00
78184;DHT22;67442;44.570;18.610;2023-07-29T05:22:41;25.60;58.10
78184;DHT22;67442;44.570;18.610;2023-07-29T05:25:09;25.60;58.10
78184;DHT22;67442;44.570;18.610;2023-07-29T05:27:37;25.50;58.10
78184;DHT22;67442;44.570;18.610;2023-07-29T05:30:05;25.60;58.10
78184;DHT22;67442;44.570;18.610;2023-07-29T05:32:34;25.60;58.10
78184;DHT22;67442;44.570;18.610;2023-07-29T05:35:01;25.50;58.10
78184;DHT22;67442;44.570;18.610;2023-07-29T05:37:28;25.50;58.10
78184;DHT22;67442;44.570;18.610;2023-07-29T05:39:56;25.60;58.20
78184;DHT22;67442;44.570;18.610;2023-07-29T05:42:23;25.50;58.20
78184;DHT22;67442;44.570;18.610;2023-07-29T05:44:50;25.60;58.20
78184;DHT22;67442;44.570;18.610;2023-07-29T05:47:18;25.50;58.20
78184;DHT22;67442;44.570;18.610;2023-07-29T05:49:45;25.60;58.30
78184;DHT22;67442;44.570;18.610;2023-07-29T05:52:12;25.60;58.30
78184;DHT22;67442;44.570;18.610;2023-07-29T05:54:39;25.60;58.30
78184;DHT22;67442;44.570;18.610;2023-07-29T05:57:07;25.60;58.30
78184;DHT22;67442;44.570;18.610;2023-07-29T05:59:34;25.60;59.00
78184;DHT22;67442;44.570;18.610;2023-07-29T06:02:01;25.60;59.10
78184;DHT22;67442;44.570;18.610;2023-07-29T06:04:28;25.60;58.40
78184;DHT22;67442;44.570;18.610;2023-07-29T06:06:58;25.60;58.40
78184;DHT22;67442;44.570;18.610;2023-07-29T06:09:26;25.60;58.70
78184;DHT22;67442;44.570;18.610;2023-07-29T06:11:53;25.60;58.90
78184;DHT22;67442;44.570;18.610;2023-07-29T06:14:20;25.60;59.20
78184;DHT22;67442;44.570;18.610;2023-07-29T06:16:48;25.60;59.60
78184;DHT22;67442;44.570;18.610;2023-07-29T06:19:15;25.60;60.50
78184;DHT22;67442;44.570;18.610;2023-07-29T06:21:42;25.60;59.80
78184;DHT22;67442;44.570;18.610;2023-07-29T06:24:10;25.60;60.00
78184;DHT22;67442;44.570;18.610;2023-07-29T06:26:41;25.60;60.20
78184;DHT22;67442;44.570;18.610;2023-07-29T06:29:12;25.60;60.40
78184;DHT22;67442;44.570;18.610;2023-07-29T06:31:40;25.60;60.20
78184;DHT22;67442;44.570;18.610;2023-07-29T06:34:07;25.60;60.60
78184;DHT22;67442;44.570;18.610;2023-07-29T06:36:34;25.60;60.70
78184;DHT22;67442;44.570;18.610;2023-07-29T06:39:02;25.60;60.90
78184;DHT22;67442;44.570;18.610;2023-07-29T06:41:29;25.60;61.10
78184;DHT22;67442;44.570;18.610;2023-07-29T06:43:57;25.60;60.20
78184;DHT22;67442;44.570;18.610;2023-07-29T06:46:24;25.60;59.90
78184;DHT22;67442;44.570;18.610;2023-07-29T06:48:52;25.50;59.50
78184;DHT22;67442;44.570;18.610;2023-07-29T06:51:19;25.50;59.70
78184;DHT22;67442;44.570;18.610;2023-07-29T06:53:46;25.50;60.00
78184;DHT22;67442;44.570;18.610;2023-07-29T06:56:17;25.50;60.40
78184;DHT22;67442;44.570;18.610;2023-07-29T06:58:45;25.60;61.00
78184;DHT22;67442;44.570;18.610;2023-07-29T07:01:13;25.60;61.40
78184;DHT22;67442;44.570;18.610;2023-07-29T07:03:40;25.60;61.70
78184;DHT22;67442;44.570;18.610;2023-07-29T07:06:07;25.50;61.90
78184;DHT22;67442;44.570;18.610;2023-07-29T07:08:35;25.60;62.30
78184;DHT22;67442;44.570;18.610;2023-07-29T07:11:06;25.60;62.60
78184;DHT22;67442;44.570;18.610;2023-07-29T07:13:34;25.50;62.80
78184;DHT22;67442;44.570;18.610;2023-07-29T07:16:01;25.50;62.70
78184;DHT22;67442;44.570;18.610;2023-07-29T07:18:29;25.50;62.80
78184;DHT22;67442;44.570;18.610;2023-07-29T07:20:56;25.50;62.30
78184;DHT22;67442;44.570;18.610;2023-07-29T07:23:23;25.50;62.10
78184;DHT22;67442;44.570;18.610;2023-07-29T07:25:51;25.50;61.50
78184;DHT22;67442;44.570;18.610;2023-07-29T07:28:18;25.50;60.80
78184;DHT22;67442;44.570;18.610;2023-07-29T07:30:45;25.50;60.30
78184;DHT22;67442;44.570;18.610;2023-07-29T07:33:12;25.60;60.20
78184;DHT22;67442;44.570;18.610;2023-07-29T07:35:39;25.50;60.80
78184;DHT22;67442;44.570;18.610;2023-07-29T07:38:08;25.60;60.10
78184;DHT22;67442;44.570;18.610;2023-07-29T07:40:36;25.50;60.00
78184;DHT22;67442;44.570;18.610;2023-07-29T07:43:07;25.50;59.90
78184;DHT22;67442;44.570;18.610;2023-07-29T07:45:34;25.50;59.90
78184;DHT22;67442;44.570;18.610;2023-07-29T07:48:01;25.60;59.90
78184;DHT22;67442;44.570;18.610;2023-07-29T07:50:30;25.60;59.90
78184;DHT22;67442;44.570;18.610;2023-07-29T07:52:57;25.60;59.80
78184;DHT22;67442;44.570;18.610;2023-07-29T07:55:24;25.60;59.90
78184;DHT22;67442;44.570;18.610;2023-07-29T07:57:56;25.60;60.00
78184;DHT22;67442;44.570;18.610;2023-07-29T08:00:23;25.60;59.90
78184;DHT22;67442;44.570;18.610;2023-07-29T08:02:50;25.60;60.00
78184;DHT22;67442;44.570;18.610;2023-07-29T08:05:18;25.60;60.00
78184;DHT22;67442;44.570;18.610;2023-07-29T08:07:45;25.60;59.90
78184;DHT22;67442;44.570;18.610;2023-07-29T08:10:17;25.60;59.90
78184;DHT22;67442;44.570;18.610;2023-07-29T08:12:44;25.60;59.90
78184;DHT22;67442;44.570;18.610;2023-07-29T08:15:11;25.60;60.00
78184;DHT22;67442;44.570;18.610;2023-07-29T08:17:38;25.60;59.90
78184;DHT22;67442;44.570;18.610;2023-07-29T08:20:06;25.60;60.00
78184;DHT22;67442;44.570;18.610;2023-07-29T08:22:35;25.60;60.00
78184;DHT22;67442;44.570;18.610;2023-07-29T08:25:02;25.70;60.10
78184;DHT22;67442;44.570;18.610;2023-07-29T08:27:30;25.60;60.00
78184;DHT22;67442;44.570;18.610;2023-07-29T08:29:57;25.60;60.00
78184;DHT22;67442;44.570;18.610;2023-07-29T08:32:25;25.70;60.10
78184;DHT22;67442;44.570;18.610;2023-07-29T08:34:55;25.70;60.10
78184;DHT22;67442;44.570;18.610;2023-07-29T08:37:23;25.70;60.00
78184;DHT22;67442;44.570;18.610;2023-07-29T08:39:55;25.70;60.00
78184;DHT22;67442;44.570;18.610;2023-07-29T08:42:23;25.60;59.70
78184;DHT22;67442;44.570;18.610;2023-07-29T08:44:56;25.60;59.70
78184;DHT22;67442;44.570;18.610;2023-07-29T08:47:23;25.70;59.60
78184;DHT22;67442;44.570;18.610;2023-07-29T08:49:51;25.70;59.50
78184;DHT22;67442;44.570;18.610;2023-07-29T08:52:18;25.70;59.30
78184;DHT22;67442;44.570;18.610;2023-07-29T08:54:45;25.60;59.20
78184;DHT22;67442;44.570;18.610;2023-07-29T08:57:13;25.60;59.20
78184;DHT22;67442;44.570;18.610;2023-07-29T08:59:40;25.60;59.10
78184;DHT22;67442;44.570;18.610;2023-07-29T09:02:12;25.60;59.10
78184;DHT22;67442;44.570;18.610;2023-07-29T09:04:39;25.60;58.90
78184;DHT22;67442;44.570;18.610;2023-07-29T09:07:06;25.70;59.00
78184;DHT22;67442;44.570;18.610;2023-07-29T09:09:34;25.60;58.90
78184;DHT22;67442;44.570;18.610;2023-07-29T09:12:02;25.60;58.80
78184;DHT22;67442;44.570;18.610;2023-07-29T09:14:30;25.60;58.70
78184;DHT22;67442;44.570;18.610;2023-07-29T09:16:58;25.60;58.50
78184;DHT22;67442;44.570;18.610;2023-07-29T09:19:26;25.60;58.40
78184;DHT22;67442;44.570;18.610;2023-07-29T09:21:53;25.70;58.40
78184;DHT22;67442;44.570;18.610;2023-07-29T09:24:24;25.70;58.30
78184;DHT22;67442;44.570;18.610;2023-07-29T09:26:51;25.70;58.30
78184;DHT22;67442;44.570;18.610;2023-07-29T09:29:23;25.70;58.10
78184;DHT22;67442;44.570;18.610;2023-07-29T09:32:38;25.70;58.00
78184;DHT22;67442;44.570;18.610;2023-07-29T09:35:11;25.60;58.00
78184;DHT22;67442;44.570;18.610;2023-07-29T09:37:39;25.70;58.60
78184;DHT22;67442;44.570;18.610;2023-07-29T09:40:13;25.60;58.00
78184;DHT22;67442;44.570;18.610;2023-07-29T09:42:48;25.70;58.00
78184;DHT22;67442;44.570;18.610;2023-07-29T09:45:23;25.60;57.90
78184;DHT22;67442;44.570;18.610;2023-07-29T09:47:51;25.60;57.90
78184;DHT22;67442;44.570;18.610;2023-07-29T09:50:18;25.70;57.90
78184;DHT22;67442;44.570;18.610;2023-07-29T09:52:46;25.70;57.80
78184;DHT22;67442;44.570;18.610;2023-07-29T09:55:26;25.70;57.70
78184;DHT22;67442;44.570;18.610;2023-07-29T09:58:02;25.60;57.70
78184;DHT22;67442;44.570;18.610;2023-07-29T10:00:33;25.60;57.60
78184;DHT22;67442;44.570;18.610;2023-07-29T10:03:01;25.60;57.60
78184;DHT22;67442;44.570;18.610;2023-07-29T10:05:28;25.70;57.70
78184;DHT22;67442;44.570;18.610;2023-07-29T10:08:00;25.70;57.70
78184;DHT22;67442;44.570;18.610;2023-07-29T10:10:28;25.70;57.70
78184;DHT22;67442;44.570;18.610;2023-07-29T10:12:56;25.70;57.70
78184;DHT22;67442;44.570;18.610;2023-07-29T10:15:25;25.70;57.70
78184;DHT22;67442;44.570;18.610;2023-07-29T10:17:52;25.70;57.70
78184;DHT22;67442;44.570;18.610;2023-07-29T10:20:24;25.70;57.70
78184;DHT22;67442;44.570;18.610;2023-07-29T10:22:51;25.60;57.40
78184;DHT22;67442;44.570;18.610;2023-07-29T10:25:25;25.70;56.70
78184;DHT22;67442;44.570;18.610;2023-07-29T10:28:05;25.60;56.00
78184;DHT22;67442;44.570;18.610;2023-07-29T10:30:32;25.60;55.40
78184;DHT22;67442;44.570;18.610;2023-07-29T10:33:02;25.60;55.10
78184;DHT22;67442;44.570;18.610;2023-07-29T10:35:34;25.50;54.60
78184;DHT22;67442;44.570;18.610;2023-07-29T10:38:02;25.40;54.10
78184;DHT22;67442;44.570;18.610;2023-07-29T10:40:52;25.40;53.90
78184;DHT22;67442;44.570;18.610;2023-07-29T10:43:27;25.40;53.50
78184;DHT22;67442;44.570;18.610;2023-07-29T10:46:23;25.30;53.20
78184;DHT22;67442;44.570;18.610;2023-07-29T10:54:03;25.10;52.80
78184;DHT22;67442;44.570;18.610;2023-07-29T10:56:35;25.10;53.20
78184;DHT22;67442;44.570;18.610;2023-07-29T11:07:30;25.00;54.10
78184;DHT22;67442;44.570;18.610;2023-07-29T11:10:01;25.00;54.10
78184;DHT22;67442;44.570;18.610;2023-07-29T11:12:47;25.00;54.10
78184;DHT22;67442;44.570;18.610;2023-07-29T11:15:17;25.00;54.10
78184;DHT22;67442;44.570;18.610;2023-07-29T11:17:48;25.00;54.00
78184;DHT22;67442;44.570;18.610;2023-07-29T11:20:25;25.00;54.00
78184;DHT22;67442;44.570;18.610;2023-07-29T11:22:53;24.90;53.90
78184;DHT22;67442;44.570;18.610;2023-07-29T11:25:22;24.90;53.90
78184;DHT22;67442;44.570;18.610;2023-07-29T11:27:50;24.90;53.80
78184;DHT22;67442;44.570;18.610;2023-07-29T11:30:16;24.90;53.80
78184;DHT22;67442;44.570;18.610;2023-07-29T11:32:46;24.90;53.80
78184;DHT22;67442;44.570;18.610;2023-07-29T11:35:16;24.90;53.80
78184;DHT22;67442;44.570;18.610;2023-07-29T11:37:46;24.80;53.70
78184;DHT22;67442;44.570;18.610;2023-07-29T11:40:18;24.80;54.40
78184;DHT22;67442;44.570;18.610;2023-07-29T11:42:46;24.80;53.80
78184;DHT22;67442;44.570;18.610;2023-07-29T11:45:14;24.80;53.70
78184;DHT22;67442;44.570;18.610;2023-07-29T11:47:40;24.80;53.90
78184;DHT22;67442;44.570;18.610;2023-07-29T11:50:11;24.80;54.60
78184;DHT22;67442;44.570;18.610;2023-07-29T11:52:41;24.80;56.30
78184;DHT22;67442;44.570;18.610;2023-07-29T11:55:09;24.80;56.70
78184;DHT22;67442;44.570;18.610;2023-07-29T11:57:37;24.80;56.50
78184;DHT22;67442;44.570;18.610;2023-07-29T12:00:06;24.80;56.00
78184;DHT22;67442;44.570;18.610;2023-07-29T12:02:37;24.80;55.70
78184;DHT22;67442;44.570;18.610;2023-07-29T12:05:05;24.80;55.40
78184;DHT22;67442;44.570;18.610;2023-07-29T12:07:34;24.80;55.10
78184;DHT22;67442;44.570;18.610;2023-07-29T12:10:02;24.80;54.90
78184;DHT22;67442;44.570;18.610;2023-07-29T12:12:31;24.80;54.90
78184;DHT22;67442;44.570;18.610;2023-07-29T12:14:58;24.80;54.60
78184;DHT22;67442;44.570;18.610;2023-07-29T12:17:30;24.80;54.50
78184;DHT22;67442;44.570;18.610;2023-07-29T12:20:01;24.80;54.40
78184;DHT22;67442;44.570;18.610;2023-07-29T12:22:28;24.80;54.30
78184;DHT22;67442;44.570;18.610;2023-07-29T12:24:56;24.70;54.10
78184;DHT22;67442;44.570;18.610;2023-07-29T12:27:27;24.70;54.00
78184;DHT22;67442;44.570;18.610;2023-07-29T12:29:54;24.70;54.00
78184;DHT22;67442;44.570;18.610;2023-07-29T12:32:25;24.70;53.90
78184;DHT22;67442;44.570;18.610;2023-07-29T12:34:53;24.70;53.90
78184;DHT22;67442;44.570;18.610;2023-07-29T12:37:20;24.70;53.90
78184;DHT22;67442;44.570;18.610;2023-07-29T12:39:57;24.70;53.80
78184;DHT22;67442;44.570;18.610;2023-07-29T12:42:25;24.70;55.30
78184;DHT22;67442;44.570;18.610;2023-07-29T12:44:52;24.70;55.50
78184;DHT22;67442;44.570;18.610;2023-07-29T12:47:19;24.70;55.40
78184;DHT22;67442;44.570;18.610;2023-07-29T12:49:47;24.70;55.40
78184;DHT22;67442;44.570;18.610;2023-07-29T12:52:15;24.70;55.30
78184;DHT22;67442;44.570;18.610;2023-07-29T12:54:42;24.70;55.20
78184;DHT22;67442;44.570;18.610;2023-07-29T12:57:13;24.70;55.00
78184;DHT22;67442;44.570;18.610;2023-07-29T12:59:40;24.70;54.90
78184;DHT22;67442;44.570;18.610;2023-07-29T13:02:07;24.70;54.80
78184;DHT22;67442;44.570;18.610;2023-07-29T13:04:35;24.70;54.70
78184;DHT22;67442;44.570;18.610;2023-07-29T13:07:06;24.80;54.60
78184;DHT22;67442;44.570;18.610;2023-07-29T13:09:33;24.80;54.50
78184;DHT22;67442;44.570;18.610;2023-07-29T13:12:00;24.80;54.40
78184;DHT22;67442;44.570;18.610;2023-07-29T13:14:32;24.80;54.40
78184;DHT22;67442;44.570;18.610;2023-07-29T13:17:03;24.80;54.20
78184;DHT22;67442;44.570;18.610;2023-07-29T13:19:31;24.80;54.20
78184;DHT22;67442;44.570;18.610;2023-07-29T13:21:58;24.80;54.00
78184;DHT22;67442;44.570;18.610;2023-07-29T13:24:26;24.70;53.90
78184;DHT22;67442;44.570;18.610;2023-07-29T13:26:52;24.70;53.90
78184;DHT22;67442;44.570;18.610;2023-07-29T13:29:21;24.70;53.80
78184;DHT22;67442;44.570;18.610;2023-07-29T13:31:48;24.70;53.80
78184;DHT22;67442;44.570;18.610;2023-07-29T13:34:15;24.70;53.70
78184;DHT22;67442;44.570;18.610;2023-07-29T13:36:43;24.70;53.70
78184;DHT22;67442;44.570;18.610;2023-07-29T13:39:10;24.70;53.70
78184;DHT22;67442;44.570;18.610;2023-07-29T13:41:41;24.70;53.60
78184;DHT22;67442;44.570;18.610;2023-07-29T13:44:08;24.70;53.50
78184;DHT22;67442;44.570;18.610;2023-07-29T13:46:34;24.70;53.50
78184;DHT22;67442;44.570;18.610;2023-07-29T13:49:01;24.70;53.50
78184;DHT22;67442;44.570;18.610;2023-07-29T13:51:29;24.70;53.40
78184;DHT22;67442;44.570;18.610;2023-07-29T13:53:57;24.70;53.40
78184;DHT22;67442;44.570;18.610;2023-07-29T13:56:27;24.70;53.30
78184;DHT22;67442;44.570;18.610;2023-07-29T13:58:54;24.70;53.30
78184;DHT22;67442;44.570;18.610;2023-07-29T14:01:21;24.70;53.30
78184;DHT22;67442;44.570;18.610;2023-07-29T14:03:49;24.70;53.20
78184;DHT22;67442;44.570;18.610;2023-07-29T14:06:16;24.70;53.20
78184;DHT22;67442;44.570;18.610;2023-07-29T14:08:44;24.70;53.20
78184;DHT22;67442;44.570;18.610;2023-07-29T14:11:11;24.70;53.10
78184;DHT22;67442;44.570;18.610;2023-07-29T14:13:38;24.70;53.10
78184;DHT22;67442;44.570;18.610;2023-07-29T14:16:06;24.70;53.10
78184;DHT22;67442;44.570;18.610;2023-07-29T14:18:33;24.70;53.10
78184;DHT22;67442;44.570;18.610;2023-07-29T14:21:00;24.70;53.00
78184;DHT22;67442;44.570;18.610;2023-07-29T14:23:28;24.70;53.00
78184;DHT22;67442;44.570;18.610;2023-07-29T14:25:56;24.60;52.90
78184;DHT22;67442;44.570;18.610;2023-07-29T14:28:24;24.60;52.90
78184;DHT22;67442;44.570;18.610;2023-07-29T14:30:51;24.60;52.90
78184;DHT22;67442;44.570;18.610;2023-07-29T14:33:21;24.70;52.90
78184;DHT22;67442;44.570;18.610;2023-07-29T14:35:49;24.60;52.90
78184;DHT22;67442;44.570;18.610;2023-07-29T14:38:16;24.60;52.80
78184;DHT22;67442;44.570;18.610;2023-07-29T14:40:48;24.60;52.90
78184;DHT22;67442;44.570;18.610;2023-07-29T14:43:17;24.60;53.20
78184;DHT22;67442;44.570;18.610;2023-07-29T14:45:48;24.60;53.20
78184;DHT22;67442;44.570;18.610;2023-07-29T14:48:15;24.60;52.90
78184;DHT22;67442;44.570;18.610;2023-07-29T14:50:42;24.60;52.70
78184;DHT22;67442;44.570;18.610;2023-07-29T14:53:10;24.60;52.60
78184;DHT22;67442;44.570;18.610;2023-07-29T14:55:37;24.60;52.60
78184;DHT22;67442;44.570;18.610;2023-07-29T14:58:04;24.60;52.60
78184;DHT22;67442;44.570;18.610;2023-07-29T15:00:31;24.70;52.50
78184;DHT22;67442;44.570;18.610;2023-07-29T15:02:58;24.70;52.50
78184;DHT22;67442;44.570;18.610;2023-07-29T15:05:24;24.60;52.40
78184;DHT22;67442;44.570;18.610;2023-07-29T15:07:51;24.60;52.60
78184;DHT22;67442;44.570;18.610;2023-07-29T15:10:18;24.60;52.80
78184;DHT22;67442;44.570;18.610;2023-07-29T15:12:45;24.60;52.80
78184;DHT22;67442;44.570;18.610;2023-07-29T15:15:12;24.60;52.80
78184;DHT22;67442;44.570;18.610;2023-07-29T15:17:39;24.60;52.70
78184;DHT22;67442;44.570;18.610;2023-07-29T15:20:07;24.70;52.70
78184;DHT22;67442;44.570;18.610;2023-07-29T15:22:34;24.60;52.70
78184;DHT22;67442;44.570;18.610;2023-07-29T15:25:01;24.70;52.70
78184;DHT22;67442;44.570;18.610;2023-07-29T15:27:28;24.70;52.70
78184;DHT22;67442;44.570;18.610;2023-07-29T15:29:56;24.70;52.70
78184;DHT22;67442;44.570;18.610;2023-07-29T15:32:23;24.70;52.80
78184;DHT22;67442;44.570;18.610;2023-07-29T15:34:51;24.70;52.90
78184;DHT22;67442;44.570;18.610;2023-07-29T15:37:23;24.70;53.00
78184;DHT22;67442;44.570;18.610;2023-07-29T15:39:51;24.70;53.20
78184;DHT22;67442;44.570;18.610;2023-07-29T15:42:18;24.70;53.40